Redwood National Park, CA

10:26 PM PST op 04 maart 2015 (GMT -0800)
APRSWXNET Arcata CA US | Change Station
CLOSE
Current Station
Persoonlijk weerstation
Location: Arcata, CA
Geometrische hoogte: 183 ft
Nabije weerstations

Hoogte 183 ft 40.88 °N, 124.08 °W | Updated 26 minutes ago

Helder
Helder
45 °F
Voelt als 45 °F
N
1
Wind Variabel Wind van ONO
Gusts 2.0 mijl/u

Vandaag
Hoog -- | Laag -- °F
--% Kans op neerslag
Gisteren
Hoog -- | Laag -- °F
Precip. -- inches
6:45 AM 6:10 PM
Volle maan, 100% visible
Druk 30.25 inches
Zicht 8.0 mijlen
Wolken Helder
Gevoelstemperatuur 45 °F
Dauwpunt 44 °F
Vochtigheid 95%
Neerslag inches
Dikte sneeuw Niet beschikbaar.
UV 0 van de 12
Pollen 7.00 van de 12
Luchtkwaliteit Niet beschikbaar.
Flu Activity Niet beschikbaar.
METAR KACV 050553Z AUTO 07003KT 8SM CLR 04/04 A3023 RMK AO2 SLP242 T00440039 10128 20044 53014

More Conditions Fewer Conditions

Druk 30.25 inches
Zicht 8.0 mijlen
Wolken Helder
Gevoelstemperatuur 45 °F
Dauwpunt 44 °F
Vochtigheid 95%
Neerslag inches
Dikte sneeuw Niet beschikbaar.
UV 0 van de 12
Pollen 7.00 van de 12
Luchtkwaliteit Niet beschikbaar.
Flu Activity Niet beschikbaar.
METAR KACV 050553Z AUTO 07003KT 8SM CLR 04/04 A3023 RMK AO2 SLP242 T00440039 10128 20044 53014

More Conditions Fewer Conditions

10-Day Weather Forecast

Almanac

Astronomie

Mar. 04, 2015 Opkomst Ondergang
Werkelijke tijd
Burgerlijke schemering
Nautische schemering
Astronomische schemering
Maan
Golflengte van het zichtbare licht
Daglengte
Tomorrow will be .
, % of the Moon is Illuminated

Extremen vandaag

State Highs State Lows

Community

WunderPhotos

Upload Photos

1,802,689 foto’s ge-upload!

WunderBlogs® & News

Nearby

Luchtkwaliteit

  Luchtkwaliteit LK-index Verontreinigende stof
Not available.

Dikte sneeuw

Station Depth Geometrische hoogte

Aardbevingen

Stad Distance Mag. Time & Date
Minimum magnitude displayed is 2.5.

Watertemperatuur langs de kust

Plaats Temperatuur

Nabije weerstations